Time,TemperatureF,DewpointF,PressureIn,WindDirection,WindDirectionDegrees,WindSpeedMPH,WindSpeedGustMPH,Humidity,HourlyPrecipIn,Conditions,Clouds,dailyrainin,SoftwareType,DateUTC
2013-01-12 00:02:00,10.0,1.0,-100.00,East,80,3.0,4.0,65,-99.99,,,-99.99,,2013-01-12 07:02:00,
2013-01-12 00:11:00,10.0,1.0,-100.00,East,90,4.0,6.0,66,-99.99,,,-99.99,,2013-01-12 07:11:00,
2013-01-12 00:21:00,11.0,2.0,-100.00,East,85,2.0,6.0,66,-99.99,,,-99.99,,2013-01-12 07:21:00,
2013-01-12 00:32:00,11.0,2.0,-100.00,East,80,2.0,4.0,66,-99.99,,,-99.99,,2013-01-12 07:32:00,
2013-01-12 00:42:00,11.0,2.0,-100.00,NE,55,2.0,4.0,66,-99.99,,,-99.99,,2013-01-12 07:42:00,
2013-01-12 00:52:00,11.0,2.0,-100.00,SSE,160,2.0,4.0,66,-99.99,,,-99.99,,2013-01-12 07:52:00,
2013-01-12 01:02:00,12.0,3.0,-100.00,ESE,115,2.0,3.0,66,-99.99,,,-99.99,,2013-01-12 08:02:00,
2013-01-12 01:11:00,11.0,2.0,-100.00,South,175,0.0,2.0,66,-99.99,,,-99.99,,2013-01-12 08:11:00,
2013-01-12 01:22:00,10.0,1.0,-100.00,South,170,0.0,1.0,66,-99.99,,,-99.99,,2013-01-12 08:22:00,
2013-01-12 01:32:00,10.0,1.0,-100.00,SSE,155,1.0,3.0,66,-99.99,,,-99.99,,2013-01-12 08:32:00,
2013-01-12 01:42:00,9.0,1.0,-100.00,SW,220,0.0,2.0,67,-99.99,,,-99.99,,2013-01-12 08:42:00,
2013-01-12 01:52:00,9.0,1.0,-100.00,ESE,120,0.0,2.0,68,-99.99,,,-99.99,,2013-01-12 08:52:00,
2013-01-12 02:02:00,8.0,1.0,-100.00,SSE,165,0.0,2.0,69,-99.99,,,-99.99,,2013-01-12 09:02:00,
2013-01-12 02:11:00,8.0,0.0,-100.00,WSW,250,0.0,2.0,70,-99.99,,,-99.99,,2013-01-12 09:11:00,
2013-01-12 02:22:00,8.0,0.0,-100.00,WNW,300,1.0,3.0,70,-99.99,,,-99.99,,2013-01-12 09:22:00,
2013-01-12 02:32:00,7.0,0.0,-100.00,NW,305,0.0,2.0,71,-99.99,,,-99.99,,2013-01-12 09:32:00,
2013-01-12 02:42:00,7.0,0.0,-100.00,WNW,295,1.0,2.0,72,-99.99,,,-99.99,,2013-01-12 09:42:00,
2013-01-12 02:52:00,7.0,0.0,-100.00,NW,310,2.0,2.0,72,-99.99,,,-99.99,,2013-01-12 09:52:00,
2013-01-12 03:02:00,6.0,-1.0,-100.00,NNW,345,1.0,2.0,73,-99.99,,,-99.99,,2013-01-12 10:02:00,
2013-01-12 03:11:00,6.0,-1.0,-100.00,NNW,345,0.0,2.0,74,-99.99,,,-99.99,,2013-01-12 10:11:00,
2013-01-12 03:22:00,5.0,-1.0,-100.00,WNW,290,1.0,2.0,74,-99.99,,,-99.99,,2013-01-12 10:22:00,
2013-01-12 03:32:00,5.0,-1.0,-100.00,WNW,290,2.0,3.0,75,-99.99,,,-99.99,,2013-01-12 10:32:00,
2013-01-12 03:42:00,5.0,-1.0,-100.00,NW,305,2.0,2.0,75,-99.99,,,-99.99,,2013-01-12 10:42:00,
2013-01-12 03:52:00,5.0,-1.0,-100.00,NW,305,1.0,2.0,76,-99.99,,,-99.99,,2013-01-12 10:52:00,
2013-01-12 04:02:00,6.0,0.0,-100.00,West,265,2.0,2.0,76,-99.99,,,-99.99,,2013-01-12 11:02:00,
2013-01-12 04:12:00,5.0,-1.0,-100.00,West,260,0.0,0.0,77,-99.99,,,-99.99,,2013-01-12 11:12:00,
2013-01-12 04:22:00,5.0,0.0,-100.00,West,260,1.0,1.0,77,-99.99,,,-99.99,,2013-01-12 11:22:00,
2013-01-12 04:32:00,5.0,0.0,-100.00,West,260,0.0,2.0,78,-99.99,,,-99.99,,2013-01-12 11:32:00,
2013-01-12 04:42:00,4.0,-1.0,-100.00,SW,220,1.0,2.0,78,-99.99,,,-99.99,,2013-01-12 11:42:00,
2013-01-12 04:52:00,4.0,-1.0,-100.00,WNW,285,4.0,5.0,79,-99.99,,,-99.99,,2013-01-12 11:52:00,
2013-01-12 05:02:00,4.0,-1.0,-100.00,NW,310,2.0,4.0,79,-99.99,,,-99.99,,2013-01-12 12:02:00,
2013-01-12 05:11:00,4.0,-1.0,-100.00,WNW,285,1.0,4.0,80,-99.99,,,-99.99,,2013-01-12 12:11:00,
2013-01-12 05:22:00,2.0,-2.0,-100.00,NW,325,1.0,2.0,80,-99.99,,,-99.99,,2013-01-12 12:22:00,
2013-01-12 05:32:00,2.0,-2.0,-100.00,NNW,335,0.0,1.0,80,-99.99,,,-99.99,,2013-01-12 12:32:00,
2013-01-12 05:42:00,2.0,-2.0,-100.00,North,350,0.0,1.0,81,-99.99,,,-99.99,,2013-01-12 12:42:00,
2013-01-12 05:52:00,2.0,-2.0,-100.00,NNW,330,1.0,1.0,81,-99.99,,,-99.99,,2013-01-12 12:52:00,
2013-01-12 06:02:00,3.0,-1.0,-100.00,NNW,330,0.0,1.0,81,-99.99,,,-99.99,,2013-01-12 13:02:00,
2013-01-12 06:12:00,3.0,-1.0,-100.00,North,355,0.0,1.0,81,-99.99,,,-99.99,,2013-01-12 13:12:00,
2013-01-12 06:22:00,4.0,-1.0,-100.00,North,350,0.0,0.0,82,-99.99,,,-99.99,,2013-01-12 13:22:00,
2013-01-12 06:32:00,4.0,0.0,-100.00,North,350,0.0,1.0,82,-99.99,,,-99.99,,2013-01-12 13:32:00,
2013-01-12 06:42:00,4.0,0.0,-100.00,North,355,1.0,2.0,83,-99.99,,,-99.99,,2013-01-12 13:42:00,
2013-01-12 06:52:00,4.0,0.0,-100.00,North,355,0.0,0.0,83,-99.99,,,-99.99,,2013-01-12 13:52:00,
2013-01-12 07:02:00,4.0,0.0,-100.00,North,355,0.0,0.0,83,-99.99,,,-99.99,,2013-01-12 14:02:00,
2013-01-12 07:12:00,3.0,-1.0,-100.00,NW,315,1.0,5.0,83,-99.99,,,-99.99,,2013-01-12 14:12:00,
2013-01-12 07:22:00,3.0,-1.0,-100.00,WSW,240,3.0,4.0,83,-99.99,,,-99.99,,2013-01-12 14:22:00,
2013-01-12 07:32:00,2.0,-1.0,-100.00,West,265,0.0,3.0,83,-99.99,,,-99.99,,2013-01-12 14:32:00,
2013-01-12 07:43:00,2.0,-2.0,-100.00,SW,230,0.0,0.0,83,-99.99,,,-99.99,,2013-01-12 14:43:00,
2013-01-12 07:53:00,2.0,-1.0,-100.00,WNW,285,1.0,2.0,83,-99.99,,,-99.99,,2013-01-12 14:53:00,
2013-01-12 08:03:00,2.0,-2.0,-100.00,West,280,0.0,2.0,83,-99.99,,,-99.99,,2013-01-12 15:03:00,
2013-01-12 08:12:00,1.0,-3.0,-100.00,West,265,1.0,4.0,83,-99.99,,,-99.99,,2013-01-12 15:12:00,
2013-01-12 08:22:00,1.0,-2.0,-100.00,WNW,285,0.0,3.0,84,-99.99,,,-99.99,,2013-01-12 15:22:00,
2013-01-12 08:33:00,3.0,-1.0,-100.00,West,280,0.0,1.0,84,-99.99,,,-99.99,,2013-01-12 15:33:00,
2013-01-12 08:42:00,5.0,2.0,-100.00,WSW,250,1.0,2.0,85,-99.99,,,-99.99,,2013-01-12 15:42:00,
2013-01-12 08:53:00,7.0,3.0,-100.00,West,280,0.0,3.0,85,-99.99,,,-99.99,,2013-01-12 15:53:00,
2013-01-12 09:02:00,7.0,4.0,-100.00,West,275,0.0,1.0,85,-99.99,,,-99.99,,2013-01-12 16:02:00,
2013-01-12 09:12:00,7.0,3.0,-100.00,West,280,2.0,4.0,84,-99.99,,,-99.99,,2013-01-12 16:12:00,
2013-01-12 09:22:00,7.0,4.0,-100.00,SW,235,1.0,3.0,84,-99.99,,,-99.99,,2013-01-12 16:22:00,
2013-01-12 09:32:00,8.0,5.0,-100.00,WNW,285,0.0,3.0,83,-99.99,,,-99.99,,2013-01-12 16:32:00,
2013-01-12 09:42:00,7.0,3.0,-100.00,West,260,2.0,6.0,81,-99.99,,,-99.99,,2013-01-12 16:42:00,
2013-01-12 09:52:00,8.0,3.0,-100.00,WSW,255,2.0,4.0,79,-99.99,,,-99.99,,2013-01-12 16:52:00,
2013-01-12 10:02:00,9.0,3.0,-100.00,WSW,255,2.0,4.0,78,-99.99,,,-99.99,,2013-01-12 17:02:00,
2013-01-12 10:12:00,9.0,3.0,-100.00,WSW,255,2.0,4.0,75,-99.99,,,-99.99,,2013-01-12 17:12:00,
2013-01-12 10:22:00,9.0,2.0,-100.00,West,270,3.0,5.0,72,-99.99,,,-99.99,,2013-01-12 17:22:00,
2013-01-12 10:32:00,10.0,2.0,-100.00,West,280,2.0,4.0,70,-99.99,,,-99.99,,2013-01-12 17:32:00,
2013-01-12 10:42:00,11.0,2.0,-100.00,WSW,245,2.0,5.0,68,-99.99,,,-99.99,,2013-01-12 17:42:00,
2013-01-12 10:52:00,12.0,3.0,-100.00,West,280,2.0,5.0,66,-99.99,,,-99.99,,2013-01-12 17:52:00,
2013-01-12 11:02:00,13.0,4.0,-100.00,WNW,290,1.0,3.0,65,-99.99,,,-99.99,,2013-01-12 18:02:00,
2013-01-12 11:12:00,14.0,4.0,-100.00,West,260,3.0,6.0,63,-99.99,,,-99.99,,2013-01-12 18:12:00,
2013-01-12 11:22:00,14.0,3.0,-100.00,West,265,4.0,7.0,61,-99.99,,,-99.99,,2013-01-12 18:22:00,
2013-01-12 11:33:00,14.0,3.0,-100.00,SW,225,3.0,7.0,60,-99.99,,,-99.99,,2013-01-12 18:33:00,
2013-01-12 11:42:00,15.0,4.0,-100.00,SW,230,4.0,7.0,60,-99.99,,,-99.99,,2013-01-12 18:42:00,
2013-01-12 11:52:00,16.0,4.0,-100.00,SW,230,4.0,6.0,59,-99.99,,,-99.99,,2013-01-12 18:52:00,
2013-01-12 12:02:00,16.0,4.0,-100.00,SW,230,4.0,6.0,58,-99.99,,,-99.99,,2013-01-12 19:02:00,
2013-01-12 12:12:00,16.0,4.0,-100.00,SW,215,6.0,7.0,57,-99.99,,,-99.99,,2013-01-12 19:12:00,
2013-01-12 12:22:00,15.0,3.0,-100.00,WSW,245,4.0,6.0,56,-99.99,,,-99.99,,2013-01-12 19:22:00,
2013-01-12 12:32:00,15.0,2.0,-100.00,WSW,240,3.0,5.0,56,-99.99,,,-99.99,,2013-01-12 19:32:00,
2013-01-12 12:42:00,16.0,3.0,-100.00,WNW,290,2.0,4.0,56,-99.99,,,-99.99,,2013-01-12 19:42:00,
2013-01-12 12:52:00,16.0,3.0,-100.00,SSW,195,2.0,4.0,55,-99.99,,,-99.99,,2013-01-12 19:52:00,
2013-01-12 13:02:00,17.0,3.0,-100.00,South,170,2.0,2.0,54,-99.99,,,-99.99,,2013-01-12 20:02:00,
2013-01-12 13:12:00,17.0,3.0,-100.00,SW,220,2.0,3.0,53,-99.99,,,-99.99,,2013-01-12 20:12:00,
2013-01-12 13:22:00,17.0,3.0,-100.00,SSW,210,2.0,3.0,53,-99.99,,,-99.99,,2013-01-12 20:22:00,
2013-01-12 13:32:00,18.0,4.0,-100.00,SSE,160,3.0,4.0,52,-99.99,,,-99.99,,2013-01-12 20:32:00,
2013-01-12 13:42:00,19.0,4.0,-100.00,SSE,165,1.0,3.0,51,-99.99,,,-99.99,,2013-01-12 20:42:00,
2013-01-12 13:52:00,20.0,4.0,-100.00,South,180,2.0,2.0,50,-99.99,,,-99.99,,2013-01-12 20:52:00,
2013-01-12 14:02:00,21.0,4.0,-100.00,South,190,1.0,2.0,47,-99.99,,,-99.99,,2013-01-12 21:02:00,
2013-01-12 14:12:00,22.0,4.0,-100.00,ESE,110,1.0,2.0,45,-99.99,,,-99.99,,2013-01-12 21:12:00,
2013-01-12 14:22:00,22.0,3.0,-100.00,South,180,2.0,4.0,43,-99.99,,,-99.99,,2013-01-12 21:22:00,
2013-01-12 14:32:00,22.0,2.0,-100.00,SSE,155,2.0,4.0,42,-99.99,,,-99.99,,2013-01-12 21:32:00,
2013-01-12 14:42:00,23.0,3.0,-100.00,South,180,2.0,4.0,41,-99.99,,,-99.99,,2013-01-12 21:42:00,
2013-01-12 14:52:00,23.0,3.0,-100.00,SSE,160,2.0,3.0,41,-99.99,,,-99.99,,2013-01-12 21:52:00,
2013-01-12 15:02:00,23.0,2.0,-100.00,SSW,205,2.0,3.0,40,-99.99,,,-99.99,,2013-01-12 22:02:00,
2013-01-12 15:12:00,23.0,2.0,-100.00,WSW,255,1.0,2.0,40,-99.99,,,-99.99,,2013-01-12 22:12:00,
2013-01-12 15:22:00,22.0,1.0,-100.00,West,280,1.0,3.0,39,-99.99,,,-99.99,,2013-01-12 22:22:00,
2013-01-12 15:32:00,24.0,3.0,-100.00,South,175,1.0,3.0,39,-99.99,,,-99.99,,2013-01-12 22:32:00,
2013-01-12 15:42:00,23.0,1.0,-100.00,ESE,105,0.0,2.0,38,-99.99,,,-99.99,,2013-01-12 22:42:00,
2013-01-12 15:52:00,21.0,0.0,-100.00,East,90,2.0,3.0,38,-99.99,,,-99.99,,2013-01-12 22:52:00,
2013-01-12 16:02:00,22.0,0.0,-100.00,ENE,70,1.0,3.0,38,-99.99,,,-99.99,,2013-01-12 23:02:00,
2013-01-12 16:12:00,21.0,0.0,-100.00,East,80,2.0,3.0,38,-99.99,,,-99.99,,2013-01-12 23:12:00,
2013-01-12 16:22:00,21.0,0.0,-100.00,ESE,105,0.0,2.0,38,-99.99,,,-99.99,,2013-01-12 23:22:00,
2013-01-12 16:32:00,22.0,1.0,-100.00,South,180,1.0,2.0,38,-99.99,,,-99.99,,2013-01-12 23:32:00,
2013-01-12 16:42:00,23.0,1.0,-100.00,SSE,160,3.0,4.0,38,-99.99,,,-99.99,,2013-01-12 23:42:00,
2013-01-12 16:52:00,20.0,0.0,-100.00,SE,145,3.0,5.0,39,-99.99,,,-99.99,,2013-01-12 23:52:00,
2013-01-12 17:02:00,19.0,-1.0,-100.00,SSE,150,2.0,4.0,40,-99.99,,,-99.99,,2013-01-13 00:02:00,
2013-01-12 17:12:00,18.0,-1.0,-100.00,SSE,160,3.0,4.0,41,-99.99,,,-99.99,,2013-01-13 00:12:00,
2013-01-12 17:22:00,17.0,-1.0,-100.00,South,190,0.0,3.0,43,-99.99,,,-99.99,,2013-01-13 00:22:00,
2013-01-12 17:32:00,16.0,-1.0,-100.00,SW,220,0.0,1.0,44,-99.99,,,-99.99,,2013-01-13 00:32:00,
2013-01-12 17:42:00,16.0,-1.0,-100.00,NNE,30,2.0,2.0,46,-99.99,,,-99.99,,2013-01-13 00:42:00,
2013-01-12 17:52:00,16.0,-1.0,-100.00,East,80,1.0,2.0,47,-99.99,,,-99.99,,2013-01-13 00:52:00,
2013-01-12 18:02:00,15.0,-1.0,-100.00,East,90,1.0,2.0,49,-99.99,,,-99.99,,2013-01-13 01:02:00,
2013-01-12 18:12:00,14.0,-1.0,-100.00,North,5,1.0,3.0,50,-99.99,,,-99.99,,2013-01-13 01:12:00,
2013-01-12 18:22:00,13.0,-1.0,-100.00,NW,320,0.0,2.0,51,-99.99,,,-99.99,,2013-01-13 01:22:00,
2013-01-12 18:32:00,13.0,0.0,-100.00,NNW,330,3.0,6.0,54,-99.99,,,-99.99,,2013-01-13 01:32:00,
2013-01-12 18:42:00,13.0,0.0,-100.00,NW,310,0.0,6.0,54,-99.99,,,-99.99,,2013-01-13 01:42:00,
2013-01-12 18:52:00,13.0,0.0,-100.00,SSE,165,2.0,4.0,56,-99.99,,,-99.99,,2013-01-13 01:52:00,
2013-01-12 19:02:00,12.0,0.0,-100.00,SSE,150,0.0,2.0,57,-99.99,,,-99.99,,2013-01-13 02:02:00,
2013-01-12 19:12:00,12.0,0.0,-100.00,SE,135,0.0,0.0,59,-99.99,,,-99.99,,2013-01-13 02:12:00,
2013-01-12 19:22:00,11.0,0.0,-100.00,ESE,115,4.0,5.0,61,-99.99,,,-99.99,,2013-01-13 02:22:00,
2013-01-12 19:32:00,10.0,1.0,-100.00,ESE,105,4.0,7.0,64,-99.99,,,-99.99,,2013-01-13 02:32:00,
2013-01-12 19:42:00,10.0,1.0,-100.00,ESE,115,2.0,3.0,65,-99.99,,,-99.99,,2013-01-13 02:42:00,
2013-01-12 19:52:00,10.0,1.0,-100.00,East,100,1.0,4.0,66,-99.99,,,-99.99,,2013-01-13 02:52:00,
2013-01-12 20:02:00,10.0,1.0,-100.00,ESE,105,1.0,2.0,66,-99.99,,,-99.99,,2013-01-13 03:02:00,
2013-01-12 20:12:00,9.0,0.0,-100.00,SE,145,0.0,3.0,67,-99.99,,,-99.99,,2013-01-13 03:12:00,
2013-01-12 20:22:00,7.0,-1.0,-100.00,SSE,165,1.0,3.0,68,-99.99,,,-99.99,,2013-01-13 03:22:00,
2013-01-12 20:32:00,7.0,-1.0,-100.00,SSE,165,0.0,2.0,68,-99.99,,,-99.99,,2013-01-13 03:32:00,
2013-01-12 20:42:00,7.0,-1.0,-100.00,ENE,75,1.0,1.0,69,-99.99,,,-99.99,,2013-01-13 03:42:00,
2013-01-12 20:52:00,6.0,-2.0,-100.00,East,100,0.0,0.0,70,-99.99,,,-99.99,,2013-01-13 03:52:00,
2013-01-12 21:02:00,5.0,-2.0,-100.00,ESE,105,2.0,4.0,71,-99.99,,,-99.99,,2013-01-13 04:02:00,
2013-01-12 21:12:00,5.0,-2.0,-100.00,East,90,2.0,4.0,72,-99.99,,,-99.99,,2013-01-13 04:12:00,
2013-01-12 21:22:00,4.0,-3.0,-100.00,SSE,155,0.0,4.0,72,-99.99,,,-99.99,,2013-01-13 04:22:00,
2013-01-12 21:32:00,4.0,-3.0,-100.00,SSE,155,1.0,1.0,73,-99.99,,,-99.99,,2013-01-13 04:32:00,
2013-01-12 21:42:00,3.0,-3.0,-100.00,SSE,155,0.0,2.0,73,-99.99,,,-99.99,,2013-01-13 04:42:00,
2013-01-12 21:52:00,4.0,-3.0,-100.00,ESE,110,0.0,0.0,74,-99.99,,,-99.99,,2013-01-13 04:52:00,
2013-01-12 22:03:00,3.0,-3.0,-100.00,ENE,70,1.0,1.0,74,-99.99,,,-99.99,,2013-01-13 05:03:00,
2013-01-12 22:12:00,3.0,-3.0,-100.00,ENE,65,2.0,2.0,75,-99.99,,,-99.99,,2013-01-13 05:12:00,
2013-01-12 22:22:00,2.0,-4.0,-100.00,East,100,3.0,4.0,76,-99.99,,,-99.99,,2013-01-13 05:22:00,
2013-01-12 22:32:00,1.0,-4.0,-100.00,SSE,150,2.0,4.0,76,-99.99,,,-99.99,,2013-01-13 05:32:00,
2013-01-12 22:42:00,0.0,-6.0,-100.00,SSE,155,1.0,3.0,76,-99.99,,,-99.99,,2013-01-13 05:42:00,
2013-01-12 22:52:00,0.0,-5.0,-100.00,SE,145,0.0,2.0,76,-99.99,,,-99.99,,2013-01-13 05:52:00,
2013-01-12 23:02:00,1.0,-5.0,-100.00,SE,130,1.0,2.0,77,-99.99,,,-99.99,,2013-01-13 06:02:00,
2013-01-12 23:12:00,1.0,-5.0,-100.00,SE,130,0.0,1.0,78,-99.99,,,-99.99,,2013-01-13 06:12:00,
2013-01-12 23:22:00,0.0,-5.0,-100.00,NE,40,1.0,2.0,78,-99.99,,,-99.99,,2013-01-13 06:22:00,
2013-01-12 23:32:00,0.0,-5.0,-100.00,NE,45,0.0,1.0,79,-99.99,,,-99.99,,2013-01-13 06:32:00,
2013-01-12 23:42:00,-1.0,-5.0,-100.00,SE,135,0.0,3.0,79,-99.99,,,-99.99,,2013-01-13 06:42:00,
2013-01-12 23:52:00,-1.0,-6.0,-100.00,SSE,160,1.0,3.0,79,-99.99,,,-99.99,,2013-01-13 06:52:00,